Time;durP1;ratioP1;P1;durP2;ratioP2;P2;SDS_P1;SDS_P2;PMS_P1;PMS_P2;Temp;Humidity;BMP_temperature;BMP_pressure;BME280_temperature;BME280_humidity;BME280_pressure;Samples;Min_cycle;Max_cycle;Signal;HPM_P1;HPM_P2
2024/02/18 00:00:55;;;;;;;9.85;4.75;;;12.10;99.90;;;;;;5061345;28;20399;-88
2024/02/18 00:03:21;;;;;;;6.80;4.30;;;12.00;99.90;;;;;;5077844;28;20020;-88
2024/02/18 00:05:47;;;;;;;8.95;4.00;;;12.00;99.90;;;;;;5077996;28;20372;-87
2024/02/18 00:08:13;;;;;;;7.45;4.78;;;12.00;99.90;;;;;;5061576;28;20525;-88
2024/02/18 00:10:38;;;;;;;6.88;4.13;;;12.00;99.90;;;;;;5079169;28;20422;-88
2024/02/18 00:13:07;;;;;;;10.65;4.30;;;12.00;99.90;;;;;;5086537;28;20036;-88
2024/02/18 00:15:33;;;;;;;7.03;4.28;;;11.90;99.90;;;;;;5118411;28;20011;-84
2024/02/18 00:17:58;;;;;;;7.85;4.47;;;11.90;99.90;;;;;;5097434;28;20029;-88
2024/02/18 00:20:25;;;;;;;8.52;4.32;;;11.90;99.90;;;;;;5097743;28;20021;-88
2024/02/18 00:22:50;;;;;;;6.75;4.00;;;11.90;99.90;;;;;;5098289;28;20021;-84
2024/02/18 00:25:16;;;;;;;8.20;4.25;;;11.80;99.90;;;;;;5076784;28;20047;-88
2024/02/18 00:27:42;;;;;;;7.13;4.28;;;11.90;99.90;;;;;;5081203;28;20031;-88
2024/02/18 00:30:08;;;;;;;6.88;3.65;;;11.80;99.90;;;;;;5073774;28;20066;-88
2024/02/18 00:32:37;;;;;;;10.90;4.10;;;11.80;99.90;;;;;;5073390;28;20053;-88
2024/02/18 00:35:03;;;;;;;7.30;3.50;;;11.80;99.90;;;;;;5074518;28;20025;-89
2024/02/18 00:37:29;;;;;;;5.70;3.40;;;11.80;99.90;;;;;;5056149;28;20032;-88
2024/02/18 00:39:54;;;;;;;7.47;3.55;;;11.80;99.90;;;;;;5056383;28;20031;-87
2024/02/18 00:42:20;;;;;;;8.45;3.90;;;11.80;99.90;;;;;;5073789;28;20111;-88
2024/02/18 00:44:48;;;;;;;8.82;4.03;;;11.80;99.90;;;;;;5056143;28;20032;-88
2024/02/18 00:47:14;;;;;;;7.53;3.83;;;11.80;99.90;;;;;;5073324;28;20029;-88
2024/02/18 00:49:40;;;;;;;7.05;3.60;;;11.80;99.90;;;;;;5072979;28;20301;-86
2024/02/18 00:52:05;;;;;;;8.18;3.50;;;11.80;99.90;;;;;;5072896;28;20020;-88
2024/02/18 00:54:31;;;;;;;5.88;3.13;;;11.80;99.90;;;;;;5072881;28;20078;-88
2024/02/18 00:56:59;;;;;;;8.60;3.17;;;11.80;99.90;;;;;;5072824;28;20085;-87
2024/02/18 00:59:25;;;;;;;7.20;3.00;;;11.80;99.90;;;;;;5056605;28;20024;-86
2024/02/18 01:01:51;;;;;;;6.10;3.08;;;11.80;99.90;;;;;;5056110;28;20040;-88
2024/02/18 01:04:17;;;;;;;9.43;3.40;;;11.80;99.90;;;;;;5073067;28;20036;-87
2024/02/18 01:06:42;;;;;;;6.00;3.10;;;11.70;99.90;;;;;;5056083;28;20383;-87
2024/02/18 01:09:09;;;;;;;6.38;3.20;;;11.70;99.90;;;;;;5056427;28;20027;-87
2024/02/18 01:11:34;;;;;;;6.78;3.25;;;11.70;99.90;;;;;;5056459;28;20020;-87
2024/02/18 01:14:02;;;;;;;6.18;3.10;;;11.70;99.90;;;;;;5073108;28;20392;-87
2024/02/18 01:16:29;;;;;;;6.10;2.80;;;11.70;99.90;;;;;;5072754;28;20025;-86
2024/02/18 01:18:55;;;;;;;7.68;3.58;;;11.60;99.90;;;;;;5059733;28;20404;-88
2024/02/18 01:21:21;;;;;;;6.55;2.80;;;11.60;99.90;;;;;;5076710;28;20035;-87
2024/02/18 01:23:46;;;;;;;6.07;2.92;;;11.60;99.90;;;;;;5076822;28;20503;-88
2024/02/18 01:26:12;;;;;;;6.72;2.92;;;11.60;99.90;;;;;;5060259;28;20028;-88
2024/02/18 01:28:38;;;;;;;6.72;3.03;;;11.60;99.90;;;;;;5078180;28;20032;-86
2024/02/18 01:31:03;;;;;;;7.05;2.78;;;11.60;99.90;;;;;;5060045;28;20064;-88
2024/02/18 01:33:29;;;;;;;6.72;2.60;;;11.60;99.90;;;;;;5060345;28;20024;-88
2024/02/18 01:35:55;;;;;;;5.75;2.85;;;11.60;99.90;;;;;;5060122;28;20024;-87
2024/02/18 01:38:21;;;;;;;8.75;3.20;;;11.60;99.90;;;;;;5059868;28;20028;-87
2024/02/18 01:40:46;;;;;;;8.68;3.40;;;11.60;99.90;;;;;;5060211;28;20028;-87
2024/02/18 01:43:14;;;;;;;5.82;2.85;;;11.60;99.90;;;;;;5060306;28;20051;-87
2024/02/18 01:45:40;;;;;;;6.78;2.92;;;11.50;99.90;;;;;;5078781;28;20016;-87
2024/02/18 01:48:06;;;;;;;6.13;3.60;;;11.50;99.90;;;;;;5087864;28;20054;-85
2024/02/18 01:50:32;;;;;;;5.85;3.15;;;11.50;99.90;;;;;;5083944;28;20017;-87
2024/02/18 01:52:58;;;;;;;9.50;3.13;;;11.50;99.90;;;;;;5084186;28;20027;-88
2024/02/18 01:55:25;;;;;;;6.18;3.03;;;11.50;99.90;;;;;;5100995;28;20008;-87
2024/02/18 01:57:54;;;;;;;9.57;3.50;;;11.50;99.90;;;;;;5092003;28;20035;-87
2024/02/18 02:00:21;;;;;;;6.43;3.00;;;11.50;99.90;;;;;;5059827;28;20029;-87
2024/02/18 02:02:49;;;;;;;6.47;3.25;;;11.50;99.90;;;;;;5077161;28;20056;-87
2024/02/18 02:05:18;;;;;;;7.18;3.40;;;11.50;99.90;;;;;;5077511;28;20123;-85
2024/02/18 02:07:44;;;;;;;9.73;3.35;;;11.60;99.90;;;;;;5077425;28;20028;-86
2024/02/18 02:10:14;;;;;;;7.00;3.22;;;11.50;99.90;;;;;;5076225;28;20053;-88
2024/02/18 02:12:43;;;;;;;5.30;3.27;;;11.60;99.90;;;;;;5060208;28;20016;-86
2024/02/18 02:15:10;;;;;;;8.13;4.07;;;11.60;99.90;;;;;;5075944;28;20021;-87
2024/02/18 02:17:40;;;;;;;9.10;3.75;;;11.60;99.90;;;;;;5076963;28;20352;-86
2024/02/18 02:20:10;;;;;;;6.43;3.20;;;11.60;99.90;;;;;;5079202;28;20115;-88
2024/02/18 02:22:36;;;;;;;6.80;3.35;;;11.60;99.90;;;;;;5079255;28;20081;-87
2024/02/18 02:25:03;;;;;;;6.97;3.45;;;11.60;99.90;;;;;;5078735;28;20028;-87
2024/02/18 02:27:36;;;;;;;4.93;3.17;;;11.60;99.90;;;;;;5077419;28;20643;-87
2024/02/18 02:30:05;;;;;;;7.18;3.70;;;11.60;99.90;;;;;;5078214;28;20483;-86
2024/02/18 02:32:31;;;;;;;7.70;3.10;;;11.60;99.90;;;;;;5078575;28;20035;-87
2024/02/18 02:34:58;;;;;;;5.93;3.13;;;11.60;99.90;;;;;;5062201;28;20028;-87
2024/02/18 02:37:25;;;;;;;7.10;3.20;;;11.60;99.90;;;;;;5078699;28;20028;-86
2024/02/18 02:39:50;;;;;;;5.00;2.88;;;11.60;99.90;;;;;;5062319;28;20020;-87
2024/02/18 02:42:17;;;;;;;9.55;2.85;;;11.70;99.90;;;;;;5096447;28;20514;-87
2024/02/18 02:44:43;;;;;;;6.88;3.38;;;11.70;99.90;;;;;;5097687;28;20066;-87
2024/02/18 02:47:09;;;;;;;8.68;3.17;;;11.70;99.90;;;;;;5064605;28;20024;-87
2024/02/18 02:49:34;;;;;;;5.63;3.25;;;11.60;99.90;;;;;;5079928;28;20024;-87
2024/02/18 02:52:00;;;;;;;6.53;3.10;;;11.70;99.90;;;;;;5065046;28;20036;-87
2024/02/18 02:54:26;;;;;;;8.75;3.70;;;11.70;99.90;;;;;;5084302;28;20016;-87
2024/02/18 02:56:51;;;;;;;9.95;3.50;;;11.70;99.90;;;;;;5063921;28;20028;-85
2024/02/18 02:59:17;;;;;;;6.38;2.72;;;11.70;99.90;;;;;;5063193;28;20118;-88
2024/02/18 03:01:43;;;;;;;6.22;3.40;;;11.70;99.90;;;;;;5099324;28;20375;-86
2024/02/18 03:04:09;;;;;;;5.20;2.83;;;11.70;99.90;;;;;;5080084;28;20458;-86
2024/02/18 03:06:35;;;;;;;6.22;3.30;;;11.70;99.90;;;;;;5064187;28;20058;-86
2024/02/18 03:09:01;;;;;;;5.95;3.10;;;11.70;99.90;;;;;;5064892;28;20545;-86
2024/02/18 03:11:30;;;;;;;7.28;3.28;;;11.70;99.90;;;;;;5101713;28;20027;-87
2024/02/18 03:13:56;;;;;;;5.65;2.90;;;11.60;99.90;;;;;;5101862;28;20024;-88
2024/02/18 03:16:21;;;;;;;6.25;2.78;;;11.70;99.90;;;;;;5084635;28;20035;-87
2024/02/18 03:18:47;;;;;;;8.05;3.10;;;11.70;99.90;;;;;;5075057;28;20086;-88
2024/02/18 03:21:13;;;;;;;6.75;2.90;;;11.70;99.90;;;;;;5081400;28;20097;-87
2024/02/18 03:23:39;;;;;;;5.25;2.78;;;11.70;99.90;;;;;;5119720;28;20019;-86
2024/02/18 03:26:05;;;;;;;5.18;3.20;;;11.70;99.90;;;;;;5116645;28;20024;-85
2024/02/18 03:28:30;;;;;;;5.47;2.72;;;11.70;99.90;;;;;;5072071;28;20588;-88
2024/02/18 03:30:56;;;;;;;7.07;2.75;;;11.70;99.90;;;;;;5065534;28;20031;-87
2024/02/18 03:33:22;;;;;;;10.32;3.17;;;11.70;99.90;;;;;;5062589;28;20036;-87
2024/02/18 03:35:47;;;;;;;8.98;3.15;;;11.70;99.90;;;;;;5078302;28;20020;-87
2024/02/18 03:38:13;;;;;;;7.65;2.90;;;11.70;99.90;;;;;;5078495;28;20092;-86
2024/02/18 03:40:42;;;;;;;8.15;3.13;;;11.70;99.90;;;;;;5077826;28;20518;-87
2024/02/18 03:43:08;;;;;;;6.25;3.10;;;11.70;99.90;;;;;;5061287;28;20039;-88
2024/02/18 03:45:34;;;;;;;6.30;2.97;;;11.70;99.90;;;;;;5061077;28;20025;-88
2024/02/18 03:47:59;;;;;;;6.25;2.85;;;11.60;99.90;;;;;;5077529;28;20028;-87
2024/02/18 03:50:25;;;;;;;5.07;2.92;;;11.70;99.90;;;;;;5095559;28;20407;-87
2024/02/18 03:52:51;;;;;;;8.75;2.88;;;11.70;99.90;;;;;;5061300;28;20038;-87
2024/02/18 03:55:17;;;;;;;5.90;2.83;;;11.60;99.90;;;;;;5077598;28;20349;-88
2024/02/18 03:57:43;;;;;;;6.40;2.92;;;11.60;99.90;;;;;;5060702;28;20024;-87
2024/02/18 04:00:12;;;;;;;6.85;2.97;;;11.60;99.90;;;;;;5077514;28;20016;-88
2024/02/18 04:02:39;;;;;;;6.63;3.20;;;11.60;99.90;;;;;;5077533;28;20360;-87
2024/02/18 04:05:10;;;;;;;5.88;2.72;;;11.60;99.90;;;;;;5077046;28;20024;-87
2024/02/18 04:07:36;;;;;;;4.75;2.58;;;11.60;99.90;;;;;;5076891;28;20036;-87
2024/02/18 04:10:03;;;;;;;6.50;3.00;;;11.60;99.90;;;;;;5076858;28;20020;-87
2024/02/18 04:12:30;;;;;;;7.75;3.25;;;11.60;99.90;;;;;;5060705;28;20460;-88
2024/02/18 04:14:55;;;;;;;5.68;2.90;;;11.50;99.90;;;;;;5076862;28;20455;-88
2024/02/18 04:17:21;;;;;;;6.70;2.95;;;11.50;99.90;;;;;;5076844;28;20057;-88
2024/02/18 04:19:47;;;;;;;7.18;3.20;;;11.50;99.90;;;;;;5077004;28;20051;-87
2024/02/18 04:22:13;;;;;;;6.05;2.53;;;11.50;99.90;;;;;;5076889;28;20469;-87
2024/02/18 04:24:42;;;;;;;5.25;2.65;;;11.50;99.90;;;;;;5076604;28;20027;-86
2024/02/18 04:27:10;;;;;;;7.70;3.13;;;11.40;99.90;;;;;;5094858;28;20032;-86
2024/02/18 04:29:39;;;;;;;6.53;3.05;;;11.40;99.90;;;;;;5078062;28;20357;-87
2024/02/18 04:32:06;;;;;;;7.15;3.58;;;11.40;99.90;;;;;;5077132;28;20089;-87
2024/02/18 04:34:32;;;;;;;6.03;2.80;;;11.40;99.90;;;;;;5077349;28;20032;-87
2024/02/18 04:36:58;;;;;;;7.55;3.20;;;11.40;99.90;;;;;;5077227;28;20379;-86
2024/02/18 04:39:24;;;;;;;4.80;2.67;;;11.40;99.90;;;;;;5078069;28;20050;-87
2024/02/18 04:41:50;;;;;;;7.90;3.20;;;11.40;99.90;;;;;;5078369;28;20471;-87
2024/02/18 04:44:16;;;;;;;5.50;3.28;;;11.30;99.90;;;;;;5062453;28;20028;-87
2024/02/18 04:46:42;;;;;;;5.40;2.85;;;11.30;99.90;;;;;;5079139;28;20096;-87
2024/02/18 04:49:07;;;;;;;5.38;3.40;;;11.30;99.90;;;;;;5097485;28;20024;-88
2024/02/18 04:51:33;;;;;;;6.13;2.85;;;11.20;99.90;;;;;;5063273;28;20032;-87
2024/02/18 04:53:59;;;;;;;7.10;3.47;;;11.20;99.90;;;;;;5089952;28;20039;-87
2024/02/18 04:56:24;;;;;;;7.15;2.70;;;11.20;99.90;;;;;;5104019;28;20013;-88
2024/02/18 04:58:50;;;;;;;5.75;2.65;;;11.20;99.90;;;;;;5122686;28;20068;-88
2024/02/18 05:01:16;;;;;;;7.60;2.85;;;11.20;99.90;;;;;;5102280;28;20036;-87
2024/02/18 05:03:42;;;;;;;8.85;3.30;;;11.20;99.90;;;;;;5094246;28;20027;-88
2024/02/18 05:06:08;;;;;;;7.63;3.00;;;11.20;99.90;;;;;;5065169;28;20119;-88
2024/02/18 05:08:35;;;;;;;8.60;3.00;;;11.20;99.90;;;;;;5081357;28;20107;-88
2024/02/18 05:11:01;;;;;;;6.25;2.97;;;11.10;99.90;;;;;;5064179;28;20042;-88
2024/02/18 05:13:26;;;;;;;10.23;2.92;;;11.10;99.90;;;;;;5063879;28;20028;-88
2024/02/18 05:15:52;;;;;;;5.03;2.95;;;11.10;99.90;;;;;;5081041;28;20056;-88
2024/02/18 05:18:19;;;;;;;6.47;3.10;;;11.10;99.90;;;;;;5063519;28;20055;-89
2024/02/18 05:20:45;;;;;;;7.60;3.30;;;11.10;99.90;;;;;;5081056;28;20035;-89
2024/02/18 05:23:13;;;;;;;6.75;3.28;;;11.10;99.90;;;;;;5081175;28;20154;-89
2024/02/18 05:25:40;;;;;;;6.43;3.03;;;11.10;99.90;;;;;;5080640;28;20031;-89
2024/02/18 05:28:06;;;;;;;7.20;3.33;;;11.10;99.90;;;;;;5098841;28;20024;-88
2024/02/18 05:30:32;;;;;;;7.57;3.28;;;11.10;99.90;;;;;;5064254;28;20032;-89
2024/02/18 05:33:02;;;;;;;7.07;3.00;;;11.10;99.90;;;;;;5080444;28;20021;-88
2024/02/18 05:35:30;;;;;;;6.70;2.88;;;11.10;99.90;;;;;;5063940;28;20021;-88
2024/02/18 05:37:56;;;;;;;6.88;3.22;;;11.10;99.90;;;;;;5080537;28;20052;-88
2024/02/18 05:40:22;;;;;;;6.68;3.28;;;11.00;99.90;;;;;;5064214;28;20074;-89
2024/02/18 05:42:48;;;;;;;8.73;3.47;;;11.10;99.90;;;;;;5063984;28;20455;-88
2024/02/18 05:45:20;;;;;;;5.80;2.88;;;11.10;99.90;;;;;;5098750;28;20022;-90
2024/02/18 05:47:45;;;;;;;7.07;2.70;;;11.10;99.90;;;;;;5064921;28;20030;-89
2024/02/18 05:50:11;;;;;;;8.32;4.10;;;11.10;99.90;;;;;;5064396;28;20028;-88
2024/02/18 05:52:37;;;;;;;7.68;3.08;;;11.00;99.90;;;;;;5081633;28;20434;-88
2024/02/18 05:55:03;;;;;;;10.07;3.08;;;11.00;99.90;;;;;;5086818;28;20111;-88
2024/02/18 05:57:29;;;;;;;7.72;3.53;;;11.10;99.90;;;;;;5086791;28;20028;-89
2024/02/18 05:59:54;;;;;;;6.25;3.20;;;11.00;99.90;;;;;;5068354;28;20097;-88
2024/02/18 06:02:20;;;;;;;7.38;3.35;;;11.00;99.90;;;;;;5073435;28;20035;-88
2024/02/18 06:04:47;;;;;;;5.80;3.30;;;11.10;99.90;;;;;;5070593;28;20456;-89
2024/02/18 06:07:13;;;;;;;6.53;3.20;;;11.00;99.90;;;;;;5065857;28;20030;-87
2024/02/18 06:09:38;;;;;;;5.90;3.17;;;11.00;99.90;;;;;;5085783;28;20466;-90
2024/02/18 06:12:04;;;;;;;5.93;3.25;;;11.00;99.90;;;;;;5102837;28;20379;-88
2024/02/18 06:14:30;;;;;;;7.35;3.25;;;11.00;99.90;;;;;;5083892;28;20111;-88
2024/02/18 06:16:57;;;;;;;6.57;3.50;;;10.90;99.90;;;;;;5082382;28;20483;-89
2024/02/18 06:19:22;;;;;;;6.65;3.30;;;10.90;99.90;;;;;;5081078;28;20139;-89
2024/02/18 06:21:48;;;;;;;6.55;3.30;;;10.90;99.90;;;;;;5080271;28;20078;-88
2024/02/18 06:24:17;;;;;;;6.60;3.10;;;10.90;99.90;;;;;;5080636;28;20042;-89
2024/02/18 06:26:42;;;;;;;6.72;3.58;;;10.90;99.90;;;;;;5082885;28;20027;-88
2024/02/18 06:29:09;;;;;;;7.00;2.83;;;10.90;99.90;;;;;;5101885;28;20008;-88
2024/02/18 06:31:35;;;;;;;8.50;3.40;;;10.90;99.90;;;;;;5086513;28;20107;-86
2024/02/18 06:34:01;;;;;;;6.10;3.38;;;10.90;99.90;;;;;;5120642;28;20081;-88
2024/02/18 06:36:28;;;;;;;8.27;3.40;;;10.90;99.90;;;;;;5100123;28;20482;-88
2024/02/18 06:38:54;;;;;;;8.65;4.32;;;10.90;99.90;;;;;;5080449;28;20116;-88
2024/02/18 06:41:19;;;;;;;6.82;3.45;;;10.80;99.90;;;;;;5080161;28;20064;-88
2024/02/18 06:43:47;;;;;;;7.50;3.40;;;10.80;99.90;;;;;;5080250;28;20031;-88
2024/02/18 06:46:16;;;;;;;7.78;3.58;;;10.80;99.90;;;;;;5079734;28;20063;-88
2024/02/18 06:48:42;;;;;;;8.32;3.25;;;10.80;99.90;;;;;;5080361;28;20372;-88
2024/02/18 06:51:08;;;;;;;9.63;3.53;;;10.80;99.90;;;;;;5061806;28;20104;-88
2024/02/18 06:53:33;;;;;;;7.13;3.53;;;10.80;99.90;;;;;;5062313;28;20531;-89
2024/02/18 06:55:59;;;;;;;6.30;3.28;;;10.70;99.90;;;;;;5062446;28;20117;-90
2024/02/18 06:58:25;;;;;;;7.18;2.70;;;10.70;99.90;;;;;;5062116;28;20364;-89
2024/02/18 07:00:53;;;;;;;7.43;3.00;;;10.70;99.90;;;;;;5078288;28;20032;-89
2024/02/18 07:03:23;;;;;;;9.13;3.70;;;10.70;99.90;;;;;;5062555;28;20028;-87
2024/02/18 07:05:48;;;;;;;7.15;3.15;;;10.70;99.90;;;;;;5062115;28;20115;-87
2024/02/18 07:08:14;;;;;;;7.68;3.10;;;10.70;99.90;;;;;;5078665;28;20117;-90
2024/02/18 07:10:40;;;;;;;5.53;3.05;;;10.70;99.90;;;;;;5061693;28;20035;-88
2024/02/18 07:13:07;;;;;;;5.63;2.63;;;10.70;99.90;;;;;;5062066;28;20115;-88
2024/02/18 07:15:32;;;;;;;6.20;3.10;;;10.60;99.90;;;;;;5061213;28;20075;-90
2024/02/18 07:17:58;;;;;;;6.50;2.97;;;10.60;99.90;;;;;;5062163;28;20082;-90
2024/02/18 07:20:25;;;;;;;5.90;2.83;;;10.70;99.90;;;;;;5063972;28;20039;-88
2024/02/18 07:22:51;;;;;;;6.68;2.58;;;10.60;99.90;;;;;;5083032;28;20031;-89
2024/02/18 07:25:22;;;;;;;6.97;2.85;;;10.60;99.90;;;;;;5099898;28;20025;-89
2024/02/18 07:27:48;;;;;;;;;;;10.60;99.90;;;;;;5080538;28;20020;-89
2024/02/18 07:30:14;;;;;;;6.65;2.67;;;10.60;99.90;;;;;;5079535;28;19915;-89
2024/02/18 07:32:40;;;;;;;7.78;2.90;;;10.60;99.90;;;;;;5078760;28;20028;-89
2024/02/18 07:35:06;;;;;;;5.07;2.80;;;10.60;99.90;;;;;;5061946;28;20123;-88
2024/02/18 07:37:31;;;;;;;7.03;2.72;;;10.60;99.90;;;;;;5078713;28;20468;-90
2024/02/18 07:40:03;;;;;;;7.85;3.22;;;10.60;99.90;;;;;;5078809;28;20069;-90
2024/02/18 07:42:29;;;;;;;6.80;2.67;;;10.60;99.90;;;;;;5079058;28;20024;-89
2024/02/18 07:44:55;;;;;;;4.90;2.80;;;10.60;99.90;;;;;;5078099;28;20030;-88
2024/02/18 07:47:21;;;;;;;7.07;3.35;;;10.60;99.90;;;;;;5061187;28;20532;-91
2024/02/18 07:49:49;;;;;;;6.43;2.38;;;10.60;99.90;;;;;;5061540;28;20116;-90
2024/02/18 07:52:15;;;;;;;6.30;2.88;;;10.60;99.90;;;;;;5078688;28;20035;-89
2024/02/18 07:54:45;;;;;;;10.05;3.67;;;10.60;99.90;;;;;;5097161;28;20032;-89
2024/02/18 07:57:11;;;;;;;6.13;2.93;;;10.60;99.90;;;;;;5063875;28;20047;-89
2024/02/18 07:59:37;;;;;;;9.48;2.90;;;10.60;99.90;;;;;;5089866;28;20016;-88
2024/02/18 08:02:03;;;;;;;7.75;3.10;;;10.60;99.90;;;;;;5101693;28;20035;-90
2024/02/18 08:04:30;;;;;;;7.43;3.05;;;10.60;99.90;;;;;;5068056;28;20099;-87
2024/02/18 08:06:58;;;;;;;6.78;2.60;;;10.60;99.90;;;;;;5100924;28;20020;-89
2024/02/18 08:09:23;;;;;;;8.30;2.90;;;10.60;99.90;;;;;;5105894;28;20031;-89
2024/02/18 08:11:49;;;;;;;5.47;3.10;;;10.60;99.90;;;;;;5061898;28;20032;-90
2024/02/18 08:14:15;;;;;;;6.85;2.83;;;10.60;99.90;;;;;;5077917;28;20027;-89
2024/02/18 08:16:41;;;;;;;4.43;2.88;;;10.60;99.90;;;;;;5077960;28;20361;-92
2024/02/18 08:19:06;;;;;;;5.57;2.80;;;10.60;99.90;;;;;;5077972;28;20048;-91
2024/02/18 08:21:34;;;;;;;8.35;3.60;;;10.60;99.90;;;;;;5096324;28;20046;-91
2024/02/18 08:24:02;;;;;;;3.80;2.42;;;10.60;99.90;;;;;;5095883;28;20042;-90
2024/02/18 08:26:31;;;;;;;8.10;3.35;;;10.60;99.90;;;;;;5078227;28;20020;-91
2024/02/18 08:28:58;;;;;;;8.55;3.17;;;10.60;99.90;;;;;;5061151;28;20028;-89
2024/02/18 08:31:26;;;;;;;7.20;3.45;;;10.60;99.90;;;;;;5076925;28;20055;-91
2024/02/18 08:33:55;;;;;;;7.13;3.22;;;10.60;99.90;;;;;;5077501;28;20059;-93
2024/02/18 08:36:21;;;;;;;9.00;3.50;;;10.60;99.90;;;;;;5077561;28;20027;-90
2024/02/18 08:38:55;;;;;;;9.98;3.58;;;10.50;99.90;;;;;;5077655;28;20020;-95
2024/02/18 08:41:21;;;;;;;6.40;2.90;;;10.50;99.90;;;;;;5077900;28;20044;-91
2024/02/18 08:43:52;;;;;;;6.32;3.22;;;10.50;99.90;;;;;;5077685;28;20076;-91
2024/02/18 08:46:18;;;;;;;7.47;3.40;;;10.40;99.90;;;;;;5078219;28;20414;-90
2024/02/18 08:48:45;;;;;;;5.28;3.15;;;10.40;99.90;;;;;;5077713;28;20028;-91
2024/02/18 08:51:14;;;;;;;5.18;3.60;;;10.50;99.90;;;;;;5077578;28;20069;-90
2024/02/18 08:53:43;;;;;;;9.32;3.80;;;10.50;99.90;;;;;;5095675;28;20023;-89
2024/02/18 08:56:11;;;;;;;6.43;3.28;;;10.50;99.90;;;;;;5078424;28;20115;-90
2024/02/18 08:58:37;;;;;;;5.82;2.90;;;10.50;99.90;;;;;;5083015;28;20039;-88
2024/02/18 09:01:03;;;;;;;5.43;3.00;;;10.50;99.90;;;;;;5085180;28;20024;-88
2024/02/18 09:03:32;;;;;;;7.15;3.40;;;10.50;99.90;;;;;;5083053;28;20032;-88
2024/02/18 09:06:03;;;;;;;6.53;3.05;;;10.50;99.90;;;;;;5104055;28;20024;-90
2024/02/18 09:08:28;;;;;;;6.85;3.42;;;10.40;99.90;;;;;;5053597;28;20513;-84
2024/02/18 09:10:54;;;;;;;7.03;3.05;;;10.40;99.90;;;;;;5110126;28;20032;-91
2024/02/18 09:13:23;;;;;;;5.72;3.10;;;10.40;99.90;;;;;;5088092;28;20020;-91
2024/02/18 09:15:49;;;;;;;6.65;3.03;;;10.50;99.90;;;;;;5079017;28;20020;-90
2024/02/18 09:18:23;;;;;;;7.72;2.85;;;10.50;99.90;;;;;;5076794;28;20403;-92
2024/02/18 09:20:48;;;;;;;7.68;3.50;;;10.50;99.90;;;;;;5077498;28;20127;-87
2024/02/18 09:23:17;;;;;;;5.68;2.90;;;10.50;99.90;;;;;;5066336;28;20051;-89
2024/02/18 09:25:43;;;;;;;5.05;2.50;;;10.50;99.90;;;;;;5086469;28;20073;-86
2024/02/18 09:28:09;;;;;;;5.82;2.78;;;10.50;99.90;;;;;;5092263;28;20024;-87
2024/02/18 09:30:38;;;;;;;6.57;3.00;;;10.50;99.90;;;;;;5089441;28;20035;-86
2024/02/18 09:33:09;;;;;;;5.13;2.88;;;10.50;99.90;;;;;;5088033;28;20077;-88
2024/02/18 09:35:37;;;;;;;6.28;3.42;;;10.40;99.90;;;;;;5092155;28;20080;-88
2024/02/18 09:38:08;;;;;;;4.93;2.78;;;10.40;99.90;;;;;;5081731;28;20025;-88
2024/02/18 09:40:39;;;;;;;5.72;2.80;;;10.40;99.90;;;;;;5078787;28;20601;-89
2024/02/18 09:43:10;;;;;;;4.82;2.90;;;10.40;99.90;;;;;;5080956;28;20055;-88
2024/02/18 09:45:57;;;;;;;8.55;3.10;;;10.40;99.90;;;;;;5080863;28;20409;-88
2024/02/18 09:48:23;;;;;;;7.38;3.03;;;10.30;99.90;;;;;;5079925;28;20028;-92
2024/02/18 09:50:59;;;;;;;8.15;3.13;;;10.30;99.90;;;;;;5080704;28;20030;-90
2024/02/18 09:53:31;;;;;;;4.15;2.70;;;10.30;99.90;;;;;;5080838;28;20030;-90
2024/02/18 09:56:00;;;;;;;7.80;2.88;;;10.30;99.90;;;;;;5064413;28;20035;-87
2024/02/18 09:58:33;;;;;;;6.07;2.90;;;10.40;99.90;;;;;;5080465;28;20073;-91
2024/02/18 10:01:01;;;;;;;5.25;2.58;;;10.40;99.90;;;;;;5099363;28;20062;-92
2024/02/18 10:03:44;;;;;;;5.97;2.75;;;10.30;99.90;;;;;;5081318;28;20472;-93
2024/02/18 10:06:25;;;;;;;;;;;;;;;;;;;;;
2024/02/18 10:08:55;;;;;;;4.70;2.60;;;10.40;99.90;;;;;;5081987;28;20039;-91
2024/02/18 10:11:23;;;;;;;7.55;2.70;;;10.40;99.90;;;;;;5080053;28;20479;-88
2024/02/18 10:14:00;;;;;;;5.47;2.90;;;10.40;99.90;;;;;;5097750;28;20026;-90
2024/02/18 10:16:29;;;;;;;6.43;2.72;;;10.40;99.90;;;;;;5079701;28;20020;-88
2024/02/18 10:19:15;;;;;;;8.45;2.83;;;10.50;99.90;;;;;;5096264;28;20060;-89
2024/02/18 10:21:44;;;;;;;4.43;2.42;;;10.50;99.90;;;;;;5063061;28;20468;-88
2024/02/18 10:24:11;;;;;;;5.72;3.08;;;10.50;99.90;;;;;;5079552;28;20016;-88
2024/02/18 10:26:38;;;;;;;6.00;2.20;;;10.50;99.90;;;;;;5078981;28;20360;-90
2024/02/18 10:29:05;;;;;;;6.25;2.65;;;10.50;99.90;;;;;;5079414;28;20016;-89
2024/02/18 10:31:42;;;;;;;;;;;;;;;;;;;;;
2024/02/18 10:34:10;;;;;;;4.20;2.25;;;10.50;99.90;;;;;;5097148;28;20026;-89
2024/02/18 10:36:37;;;;;;;5.05;2.17;;;10.50;99.90;;;;;;5062551;28;20020;-88
2024/02/18 10:39:12;;;;;;;6.75;2.70;;;10.50;99.90;;;;;;5079038;28;20012;-88
2024/02/18 10:41:50;;;;;;;6.80;2.45;;;10.50;99.90;;;;;;5079561;28;20119;-89
2024/02/18 10:44:20;;;;;;;4.40;1.98;;;10.50;99.90;;;;;;5079412;28;20024;-88
2024/02/18 10:46:48;;;;;;;4.45;1.95;;;10.50;99.90;;;;;;5079186;28;20043;-89
2024/02/18 10:49:25;;;;;;;6.30;2.33;;;10.50;99.90;;;;;;5078273;28;20016;-89
2024/02/18 10:52:16;;;;;;;4.35;2.10;;;10.50;99.90;;;;;;5078919;28;20035;-87
2024/02/18 10:55:03;;;;;;;5.50;2.30;;;10.50;99.90;;;;;;5078848;28;20490;-87
2024/02/18 10:57:31;;;;;;;4.88;2.00;;;10.60;99.90;;;;;;5079822;28;20012;-88
2024/02/18 11:00:08;;;;;;;3.97;1.80;;;10.60;99.90;;;;;;5080057;28;20020;-87
2024/02/18 11:03:21;;;;;;;5.88;2.15;;;10.60;99.90;;;;;;5090078;28;20023;-88
2024/02/18 11:05:53;;;;;;;4.43;2.28;;;10.50;99.90;;;;;;5038426;28;20089;-87
2024/02/18 11:08:22;;;;;;;4.07;1.90;;;10.50;99.90;;;;;;5089158;28;20032;-87
2024/02/18 11:10:48;;;;;;;4.10;2.00;;;10.50;99.90;;;;;;5102311;28;20008;-87
2024/02/18 11:13:14;;;;;;;6.07;2.50;;;10.50;99.90;;;;;;5105345;28;20035;-88
2024/02/18 11:15:42;;;;;;;5.00;1.80;;;10.50;99.90;;;;;;5064138;28;20028;-86
2024/02/18 11:18:11;;;;;;;6.97;2.30;;;10.50;99.90;;;;;;5096616;28;20047;-88
2024/02/18 11:20:37;;;;;;;6.47;2.08;;;10.50;99.90;;;;;;5079015;28;20062;-87
2024/02/18 11:23:05;;;;;;;3.28;1.75;;;10.50;99.90;;;;;;5078210;28;20349;-86
2024/02/18 11:25:33;;;;;;;5.15;1.98;;;10.50;99.90;;;;;;5062013;28;20028;-87
2024/02/18 11:27:59;;;;;;;3.28;1.73;;;10.50;99.90;;;;;;5096439;28;20028;-87
2024/02/18 11:30:25;;;;;;;4.53;1.92;;;10.50;99.90;;;;;;5095918;28;20039;-89
2024/02/18 11:32:53;;;;;;;5.63;2.10;;;10.50;99.90;;;;;;5061401;28;20165;-89
2024/02/18 11:35:21;;;;;;;4.70;2.22;;;10.50;99.90;;;;;;5078740;28;20032;-89
2024/02/18 11:44:43;;;;;;;4.25;2.28;;;10.50;99.90;;;;;;5060752;28;20445;-89
2024/02/18 11:47:09;;;;;;;6.63;1.80;;;10.50;99.90;;;;;;5077140;28;20078;-87
2024/02/18 11:49:35;;;;;;;5.68;1.70;;;10.50;99.90;;;;;;5060885;28;20418;-86
2024/02/18 11:52:01;;;;;;;3.45;1.75;;;10.50;99.90;;;;;;5061122;28;20440;-87
2024/02/18 11:54:27;;;;;;;5.90;2.08;;;10.50;99.90;;;;;;5079273;28;20035;-86
2024/02/18 11:56:53;;;;;;;6.38;1.90;;;10.50;99.90;;;;;;5080100;28;20051;-86
2024/02/18 11:59:18;;;;;;;5.40;2.17;;;10.50;99.90;;;;;;5061048;28;20028;-86
2024/02/18 12:01:47;;;;;;;4.75;1.85;;;10.40;99.90;;;;;;5061311;28;20040;-87
2024/02/18 12:04:13;;;;;;;5.28;2.40;;;10.40;99.90;;;;;;5085198;28;20024;-89
2024/02/18 12:06:42;;;;;;;5.18;2.05;;;10.40;99.90;;;;;;5086073;28;20031;-89
2024/02/18 12:09:16;;;;;;;6.05;2.60;;;10.40;99.90;;;;;;5080990;28;20107;-91
2024/02/18 12:11:44;;;;;;;5.53;1.88;;;10.30;99.90;;;;;;5080728;28;20036;-92
2024/02/18 12:14:10;;;;;;;6.28;2.50;;;10.30;99.90;;;;;;5080954;28;20024;-90
2024/02/18 12:16:36;;;;;;;4.60;2.17;;;10.30;99.90;;;;;;5079011;28;20023;-88
2024/02/18 12:19:02;;;;;;;6.15;2.20;;;10.30;99.90;;;;;;5095628;28;20044;-88
2024/02/18 12:21:31;;;;;;;4.65;1.98;;;10.40;99.90;;;;;;5077498;28;20093;-90
2024/02/18 12:24:01;;;;;;;4.78;2.22;;;10.40;99.90;;;;;;5061468;28;20055;-87
2024/02/18 12:26:29;;;;;;;3.42;2.10;;;10.30;99.90;;;;;;5078267;28;20060;-88
2024/02/18 12:28:55;;;;;;;4.88;2.20;;;10.30;99.90;;;;;;5078053;28;20024;-89
2024/02/18 12:31:21;;;;;;;4.95;2.30;;;10.30;99.90;;;;;;5078644;28;20486;-88
2024/02/18 12:33:48;;;;;;;5.55;2.25;;;10.30;99.90;;;;;;5083285;28;20016;-88
2024/02/18 12:36:14;;;;;;;4.90;2.10;;;10.30;99.90;;;;;;5084015;28;20008;-88
2024/02/18 12:38:42;;;;;;;5.18;2.28;;;10.30;99.90;;;;;;5100407;28;20038;-88
2024/02/18 12:41:11;;;;;;;8.05;2.80;;;10.30;99.90;;;;;;5100651;28;20020;-86
2024/02/18 12:43:42;;;;;;;7.38;2.40;;;10.30;99.90;;;;;;5091018;28;20028;-88
2024/02/18 12:46:08;;;;;;;6.70;2.20;;;10.30;99.90;;;;;;5077532;28;20443;-88
2024/02/18 12:48:41;;;;;;;5.35;2.53;;;10.30;99.90;;;;;;5077016;28;20024;-87
2024/02/18 12:51:11;;;;;;;3.50;2.10;;;10.20;99.90;;;;;;5060420;28;20044;-86
2024/02/18 12:53:38;;;;;;;4.53;2.22;;;10.20;99.90;;;;;;5094384;28;20024;-88
2024/02/18 12:56:05;;;;;;;6.32;2.40;;;10.20;99.90;;;;;;5076909;28;20060;-87